createdAt,value
2023-04-30T00:01:29.951Z,15.10
2023-04-30T00:03:57.380Z,15.50
2023-04-30T00:06:26.240Z,15.30
2023-04-30T00:08:55.582Z,15.70
2023-04-30T00:11:22.757Z,15.50
2023-04-30T00:13:50.694Z,15.70
2023-04-30T00:16:18.161Z,15.50
2023-04-30T00:18:45.590Z,14.90
2023-04-30T00:21:12.748Z,15.20
2023-04-30T00:23:39.932Z,15.00
2023-04-30T00:26:07.136Z,14.90
2023-04-30T00:28:34.361Z,15.10
2023-04-30T00:31:01.525Z,14.80
2023-04-30T00:33:28.848Z,14.70
2023-04-30T00:35:56.008Z,14.60
2023-04-30T00:38:23.217Z,15.00
2023-04-30T00:40:50.597Z,15.00
2023-04-30T00:43:17.794Z,14.90
2023-04-30T00:45:45.046Z,14.70
2023-04-30T00:48:12.286Z,15.00
2023-04-30T00:50:39.503Z,15.00
2023-04-30T00:53:06.660Z,14.90
2023-04-30T00:55:33.865Z,15.10
2023-04-30T00:58:01.206Z,15.40
2023-04-30T01:00:28.777Z,15.50
2023-04-30T01:02:56.953Z,15.20
2023-04-30T01:05:24.292Z,15.00
2023-04-30T01:07:51.776Z,14.50
2023-04-30T01:10:19.645Z,15.10
2023-04-30T01:13:15.817Z,14.40
2023-04-30T01:16:04.720Z,14.70
2023-04-30T01:18:42.277Z,14.40
2023-04-30T01:21:10.018Z,14.60
2023-04-30T01:24:08.074Z,14.10
2023-04-30T01:27:10.604Z,14.40
2023-04-30T01:29:40.381Z,14.50
2023-04-30T01:32:07.556Z,14.60
2023-04-30T01:34:44.840Z,14.10
2023-04-30T01:37:43.854Z,14.20
2023-04-30T01:40:47.998Z,14.30
2023-04-30T01:47:17.178Z,13.80
2023-04-30T01:53:27.820Z,14.50
2023-04-30T01:56:59.319Z,14.40
2023-04-30T02:00:00.224Z,14.40
2023-04-30T02:02:27.511Z,14.40
2023-04-30T02:04:54.724Z,14.30
2023-04-30T02:07:38.680Z,14.20
2023-04-30T02:10:07.254Z,14.70
2023-04-30T02:12:34.934Z,14.10
2023-04-30T02:15:03.295Z,14.60
2023-04-30T02:17:31.324Z,14.40
2023-04-30T02:19:59.084Z,14.50
2023-04-30T02:22:26.568Z,14.50
2023-04-30T02:24:55.679Z,14.70
2023-04-30T02:27:24.261Z,14.50
2023-04-30T02:29:51.631Z,14.10
2023-04-30T02:32:19.222Z,14.30
2023-04-30T02:34:46.508Z,14.20
2023-04-30T02:37:13.732Z,14.10
2023-04-30T02:39:41.222Z,14.20
2023-04-30T02:42:08.800Z,14.40
2023-04-30T02:44:36.026Z,14.60
2023-04-30T02:47:03.227Z,14.40
2023-04-30T02:49:30.609Z,14.20
2023-04-30T02:51:57.799Z,14.30
2023-04-30T02:54:25.065Z,14.30
2023-04-30T02:56:52.285Z,14.40
2023-04-30T02:59:19.466Z,14.00
2023-04-30T03:01:47.144Z,14.10
2023-04-30T03:04:14.415Z,14.20
2023-04-30T03:06:41.628Z,14.60
2023-04-30T03:09:08.872Z,14.20
2023-04-30T03:11:37.728Z,14.10
2023-04-30T03:14:05.248Z,14.70
2023-04-30T03:16:32.473Z,14.30
2023-04-30T03:18:59.668Z,14.30
2023-04-30T03:21:26.834Z,14.60
2023-04-30T03:23:54.023Z,14.80
2023-04-30T03:26:22.005Z,14.70
2023-04-30T03:28:49.521Z,14.70
2023-04-30T03:31:16.959Z,14.40
2023-04-30T03:33:44.310Z,14.40
2023-04-30T03:36:11.749Z,14.40
2023-04-30T03:38:38.941Z,14.20
2023-04-30T03:41:06.400Z,14.20
2023-04-30T03:43:34.450Z,14.20
2023-04-30T03:46:01.662Z,14.20
2023-04-30T03:48:28.868Z,14.40
2023-04-30T03:50:56.065Z,14.70
2023-04-30T03:53:24.473Z,14.60
2023-04-30T03:55:51.642Z,14.40
2023-04-30T03:58:18.853Z,14.30
2023-04-30T04:00:46.055Z,14.10
2023-04-30T04:03:13.513Z,14.70
2023-04-30T04:05:41.015Z,14.60
2023-04-30T04:08:08.517Z,14.50
2023-04-30T04:10:36.123Z,14.40
2023-04-30T04:13:03.448Z,14.40
2023-04-30T04:15:31.019Z,14.70
2023-04-30T04:17:58.309Z,14.60
2023-04-30T04:20:25.643Z,14.30
2023-04-30T04:22:52.817Z,14.60
2023-04-30T04:25:20.550Z,14.50
2023-04-30T04:27:47.709Z,14.30
2023-04-30T04:30:15.075Z,14.30
2023-04-30T04:32:46.602Z,14.10
2023-04-30T04:35:18.895Z,14.40
2023-04-30T04:37:46.073Z,14.30
2023-04-30T04:40:13.717Z,14.30
2023-04-30T04:42:40.951Z,14.10
2023-04-30T04:45:08.554Z,14.30
2023-04-30T04:47:36.505Z,14.20
2023-04-30T04:50:03.830Z,14.10
2023-04-30T04:52:31.018Z,14.30
2023-04-30T04:54:58.193Z,14.50
2023-04-30T04:57:25.710Z,14.50
2023-04-30T04:59:53.165Z,14.30
2023-04-30T05:02:21.241Z,14.40
2023-04-30T05:04:50.427Z,14.40
2023-04-30T05:07:18.283Z,14.50
2023-04-30T05:09:48.995Z,14.40
2023-04-30T05:12:16.174Z,14.50
2023-04-30T05:14:43.925Z,14.40
2023-04-30T05:17:11.154Z,14.70
2023-04-30T05:19:38.328Z,14.40
2023-04-30T05:22:05.770Z,14.30
2023-04-30T05:24:32.939Z,14.20
2023-04-30T05:27:00.284Z,14.50
2023-04-30T05:29:27.465Z,14.30
2023-04-30T05:31:54.800Z,14.50
2023-04-30T05:34:22.073Z,14.60
2023-04-30T05:36:49.464Z,14.60
2023-04-30T05:39:16.617Z,14.50
2023-04-30T05:41:43.861Z,14.80
2023-04-30T05:44:11.018Z,14.60
2023-04-30T05:46:38.245Z,14.60
2023-04-30T05:49:05.474Z,14.50
2023-04-30T05:51:32.730Z,14.60
2023-04-30T05:54:00.386Z,14.50
2023-04-30T05:56:27.568Z,14.70
2023-04-30T05:58:54.753Z,14.80
2023-04-30T06:01:23.090Z,14.40
2023-04-30T06:03:50.442Z,14.40
2023-04-30T06:06:17.597Z,14.40
2023-04-30T06:08:45.539Z,14.90
2023-04-30T06:11:13.679Z,14.70
2023-04-30T06:13:41.119Z,14.90
2023-04-30T06:16:08.716Z,15.10
2023-04-30T06:18:36.184Z,14.90
2023-04-30T06:21:03.468Z,14.70
2023-04-30T06:23:30.684Z,15.00
2023-04-30T06:25:57.952Z,15.00
2023-04-30T06:28:25.487Z,15.20
2023-04-30T06:30:54.262Z,15.40
2023-04-30T06:33:21.724Z,15.50
2023-04-30T06:35:50.917Z,15.40
2023-04-30T06:38:18.245Z,15.20
2023-04-30T06:40:45.451Z,15.40
2023-04-30T06:43:12.611Z,15.70
2023-04-30T06:45:40.342Z,15.70
2023-04-30T06:48:07.785Z,15.40
2023-04-30T06:50:35.095Z,15.70
2023-04-30T06:53:02.848Z,15.30
2023-04-30T06:55:30.223Z,15.40
2023-04-30T06:57:57.961Z,15.90
2023-04-30T07:00:25.296Z,15.90
2023-04-30T07:02:52.639Z,15.80
2023-04-30T07:05:19.979Z,15.70
2023-04-30T07:07:47.199Z,16.20
2023-04-30T07:10:14.390Z,16.20
2023-04-30T07:12:41.606Z,16.20
2023-04-30T07:15:09.218Z,16.30
2023-04-30T07:17:37.195Z,16.70
2023-04-30T07:20:05.248Z,16.60
2023-04-30T07:22:32.962Z,16.60
2023-04-30T07:25:00.690Z,17.40
2023-04-30T07:27:28.421Z,17.70
2023-04-30T07:29:56.332Z,18.30
2023-04-30T07:32:26.858Z,18.30
2023-04-30T07:34:54.504Z,17.90
2023-04-30T07:37:21.989Z,17.90
2023-04-30T07:39:49.345Z,18.10
2023-04-30T07:42:16.606Z,18.20
2023-04-30T07:44:43.936Z,18.00
2023-04-30T07:47:11.206Z,18.70
2023-04-30T07:49:38.358Z,18.50
2023-04-30T07:52:06.037Z,19.30
2023-04-30T07:54:36.416Z,19.20
2023-04-30T07:57:03.692Z,19.40
2023-04-30T07:59:31.117Z,19.20
2023-04-30T08:01:58.811Z,19.90
2023-04-30T08:04:26.270Z,20.80
2023-04-30T08:06:53.564Z,21.30
2023-04-30T08:09:20.810Z,21.00
2023-04-30T08:11:48.064Z,19.80
2023-04-30T08:14:15.281Z,21.00
2023-04-30T08:16:42.490Z,20.70
2023-04-30T08:19:09.641Z,21.80
2023-04-30T08:21:40.109Z,21.20
2023-04-30T08:24:07.293Z,20.10
2023-04-30T08:26:34.467Z,20.60
2023-04-30T08:29:01.675Z,19.50
2023-04-30T08:31:28.938Z,19.70
2023-04-30T08:33:56.210Z,19.70
2023-04-30T08:36:29.096Z,18.80
2023-04-30T08:39:06.418Z,19.30
2023-04-30T08:41:43.100Z,20.00
2023-04-30T08:44:24.616Z,20.20
2023-04-30T08:46:58.922Z,19.70
2023-04-30T08:49:27.095Z,20.00
2023-04-30T08:52:05.262Z,19.30
2023-04-30T08:54:44.548Z,19.20
2023-04-30T08:57:21.936Z,19.30
2023-04-30T09:00:28.215Z,19.30
2023-04-30T09:02:55.452Z,19.40
2023-04-30T09:05:22.764Z,19.00
2023-04-30T09:08:02.429Z,19.70
2023-04-30T09:10:56.036Z,19.70
2023-04-30T09:13:53.269Z,19.60
2023-04-30T09:16:53.483Z,19.00
2023-04-30T09:19:52.181Z,19.10
2023-04-30T09:22:51.461Z,19.50
2023-04-30T09:25:51.799Z,20.00
2023-04-30T09:28:51.660Z,19.80
2023-04-30T09:31:52.063Z,19.40
2023-04-30T09:34:52.996Z,20.50
2023-04-30T09:37:20.192Z,20.80
2023-04-30T09:39:52.186Z,20.50
2023-04-30T09:42:20.136Z,20.40
2023-04-30T09:44:48.193Z,20.10
2023-04-30T09:47:19.785Z,20.10
2023-04-30T09:49:54.211Z,20.10
2023-04-30T09:52:21.861Z,20.00
2023-04-30T09:54:49.528Z,19.90
2023-04-30T09:57:17.038Z,19.00
2023-04-30T09:59:46.003Z,19.20
2023-04-30T10:02:16.138Z,18.90
2023-04-30T10:04:45.512Z,18.90
2023-04-30T10:07:22.457Z,19.30
2023-04-30T10:09:58.549Z,19.40
2023-04-30T10:12:43.240Z,19.80
2023-04-30T10:15:16.900Z,19.70
2023-04-30T10:17:47.795Z,19.20
2023-04-30T10:20:15.054Z,19.60
2023-04-30T10:22:43.696Z,19.80
2023-04-30T10:25:13.367Z,20.50
2023-04-30T10:27:40.655Z,20.50
2023-04-30T10:30:11.711Z,20.20
2023-04-30T10:32:49.496Z,20.40
2023-04-30T10:36:02.727Z,20.50
2023-04-30T10:38:32.408Z,21.20
2023-04-30T10:41:01.388Z,21.10
2023-04-30T10:43:31.578Z,21.40
2023-04-30T10:45:59.445Z,21.40
2023-04-30T10:48:27.414Z,21.40
2023-04-30T10:50:59.122Z,21.00
2023-04-30T10:53:28.596Z,20.50
2023-04-30T10:55:59.701Z,20.90
2023-04-30T10:58:38.355Z,21.00
2023-04-30T11:01:18.174Z,21.40
2023-04-30T11:04:08.194Z,21.00
2023-04-30T11:06:56.545Z,20.50
2023-04-30T11:09:40.034Z,20.90
2023-04-30T11:12:15.433Z,20.40
2023-04-30T11:14:44.425Z,21.10
2023-04-30T11:17:13.539Z,20.80
2023-04-30T11:19:48.660Z,21.60
2023-04-30T11:22:17.658Z,21.20
2023-04-30T11:25:09.568Z,21.90
2023-04-30T11:27:38.015Z,22.00
2023-04-30T11:30:12.502Z,22.00
2023-04-30T11:32:40.770Z,22.30
2023-04-30T11:35:08.633Z,22.20
2023-04-30T11:37:40.727Z,21.70
2023-04-30T11:40:11.012Z,21.30
2023-04-30T11:42:40.092Z,21.10
2023-04-30T11:45:12.119Z,20.90
2023-04-30T11:47:50.505Z,21.10
2023-04-30T11:50:29.180Z,20.80
2023-04-30T11:52:59.007Z,20.70
2023-04-30T11:55:27.102Z,20.40
2023-04-30T11:57:56.012Z,20.70
2023-04-30T12:00:28.596Z,20.50
2023-04-30T12:02:56.687Z,20.50
2023-04-30T12:05:25.825Z,20.00
2023-04-30T12:08:06.366Z,20.50
2023-04-30T12:10:33.646Z,19.50
2023-04-30T12:13:00.826Z,19.60
2023-04-30T12:15:28.879Z,20.10
2023-04-30T12:17:58.061Z,20.40
2023-04-30T12:20:27.023Z,20.30
2023-04-30T12:22:54.440Z,20.20
2023-04-30T12:25:22.785Z,20.50
2023-04-30T12:27:54.089Z,20.50
2023-04-30T12:30:23.369Z,20.10
2023-04-30T12:32:52.101Z,20.40
2023-04-30T12:35:21.101Z,20.20
2023-04-30T12:37:51.241Z,20.70
2023-04-30T12:40:26.240Z,20.00
2023-04-30T12:43:07.295Z,20.40
2023-04-30T12:45:55.086Z,20.00
2023-04-30T12:48:24.380Z,20.80
2023-04-30T12:50:59.958Z,20.40
2023-04-30T12:53:27.629Z,21.10
2023-04-30T12:56:17.478Z,20.90
2023-04-30T12:58:47.549Z,20.70
2023-04-30T13:01:21.904Z,21.60
2023-04-30T13:03:49.397Z,21.70
2023-04-30T13:06:17.006Z,22.30
2023-04-30T13:08:57.889Z,22.80
2023-04-30T13:11:27.107Z,22.20
2023-04-30T13:13:55.777Z,22.00
2023-04-30T13:16:24.602Z,21.40
2023-04-30T13:18:52.439Z,21.60
2023-04-30T13:21:20.619Z,21.30
2023-04-30T13:23:52.898Z,21.10
2023-04-30T13:26:22.909Z,21.00
2023-04-30T13:28:50.089Z,21.20
2023-04-30T13:31:17.331Z,21.20
2023-04-30T13:33:44.552Z,21.20
2023-04-30T13:36:11.871Z,20.50
2023-04-30T13:38:39.482Z,20.80
2023-04-30T13:41:07.035Z,20.70
2023-04-30T13:43:34.337Z,20.30
2023-04-30T13:46:01.930Z,20.40
2023-04-30T13:48:29.255Z,19.90
2023-04-30T13:50:56.466Z,20.50
2023-04-30T13:53:23.687Z,20.50
2023-04-30T13:55:50.908Z,20.70
2023-04-30T13:58:18.197Z,21.00
2023-04-30T14:00:45.407Z,20.60
2023-04-30T14:03:12.930Z,20.70
2023-04-30T14:05:40.430Z,20.50
2023-04-30T14:08:07.703Z,21.20
2023-04-30T14:10:34.924Z,21.20
2023-04-30T14:13:02.148Z,21.20
2023-04-30T14:15:32.319Z,21.50
2023-04-30T14:18:00.571Z,21.20
2023-04-30T14:20:27.915Z,21.20
2023-04-30T14:22:55.093Z,21.30
2023-04-30T14:25:22.335Z,20.40
2023-04-30T14:27:49.483Z,20.90
2023-04-30T14:30:16.666Z,20.80
2023-04-30T14:32:43.871Z,20.80
2023-04-30T14:35:11.198Z,21.30
2023-04-30T14:37:38.410Z,20.90
2023-04-30T14:40:07.935Z,20.90
2023-04-30T14:42:35.166Z,20.80
2023-04-30T14:45:02.409Z,20.50
2023-04-30T14:47:29.779Z,20.20
2023-04-30T14:49:58.848Z,19.70
2023-04-30T14:52:26.101Z,19.70
2023-04-30T14:54:53.436Z,19.60
2023-04-30T14:57:20.715Z,20.20
2023-04-30T14:59:47.959Z,19.90
2023-04-30T15:02:15.181Z,19.70
2023-04-30T15:04:46.039Z,20.10
2023-04-30T15:07:13.254Z,20.60
2023-04-30T15:09:40.848Z,20.20
2023-04-30T15:12:08.046Z,20.70
2023-04-30T15:14:35.238Z,20.50
2023-04-30T15:17:02.550Z,20.50
2023-04-30T15:19:35.098Z,20.90
2023-04-30T15:22:05.122Z,20.10
2023-04-30T15:24:32.431Z,20.20
2023-04-30T15:27:02.455Z,20.40
2023-04-30T15:29:29.749Z,20.70
2023-04-30T15:32:00.843Z,20.60
2023-04-30T15:34:28.349Z,20.50
2023-04-30T15:37:00.715Z,20.80
2023-04-30T15:39:30.002Z,21.00
2023-04-30T15:42:08.696Z,21.20
2023-04-30T15:44:38.743Z,20.80
2023-04-30T15:47:14.682Z,21.20
2023-04-30T15:49:43.638Z,20.50
2023-04-30T15:52:28.544Z,21.00
2023-04-30T15:55:07.532Z,21.00
2023-04-30T15:57:44.880Z,21.20
2023-04-30T16:00:16.575Z,21.40
2023-04-30T16:02:47.255Z,21.30
2023-04-30T16:05:30.030Z,20.80
2023-04-30T16:07:57.794Z,20.70
2023-04-30T16:10:28.629Z,20.60
2023-04-30T16:13:02.163Z,20.20
2023-04-30T16:15:36.187Z,20.60
2023-04-30T16:18:10.093Z,20.50
2023-04-30T16:20:38.125Z,20.20
2023-04-30T16:23:17.844Z,20.20
2023-04-30T16:25:49.780Z,19.90
2023-04-30T16:28:23.831Z,20.10
2023-04-30T16:30:51.687Z,20.10
2023-04-30T16:33:43.361Z,20.10
2023-04-30T16:36:11.077Z,19.70
2023-04-30T16:38:38.251Z,19.80
2023-04-30T16:41:05.563Z,20.00
2023-04-30T16:43:32.733Z,20.20
2023-04-30T16:45:59.905Z,20.00
2023-04-30T16:48:27.078Z,20.30
2023-04-30T16:50:54.286Z,20.10
2023-04-30T16:53:21.839Z,19.90
2023-04-30T16:55:56.034Z,19.80
2023-04-30T16:58:33.676Z,19.80
2023-04-30T17:01:08.822Z,20.10
2023-04-30T17:03:42.106Z,20.10
2023-04-30T17:06:10.099Z,20.10
2023-04-30T17:08:45.011Z,20.00
2023-04-30T17:11:21.385Z,19.70
2023-04-30T17:13:53.528Z,19.70
2023-04-30T17:16:22.518Z,19.60
2023-04-30T17:18:50.282Z,19.80
2023-04-30T17:21:20.610Z,19.50
2023-04-30T17:23:47.806Z,19.30
2023-04-30T17:26:14.999Z,19.20
2023-04-30T17:28:42.251Z,19.20
2023-04-30T17:31:09.599Z,19.20
2023-04-30T17:33:36.910Z,19.30
2023-04-30T17:36:04.576Z,19.30
2023-04-30T17:38:32.153Z,18.90
2023-04-30T17:40:59.368Z,18.60
2023-04-30T17:43:26.568Z,18.50
2023-04-30T17:45:54.349Z,18.40
2023-04-30T17:48:21.830Z,18.60
2023-04-30T17:50:49.077Z,18.00
2023-04-30T17:53:16.320Z,18.50
2023-04-30T17:55:43.506Z,18.20
2023-04-30T17:58:11.461Z,18.50
2023-04-30T18:00:40.396Z,18.10
2023-04-30T18:03:08.084Z,18.40
2023-04-30T18:05:35.887Z,18.60
2023-04-30T18:08:03.446Z,18.60
2023-04-30T18:10:30.776Z,18.60
2023-04-30T18:13:01.412Z,18.40
2023-04-30T18:15:29.353Z,18.40
2023-04-30T18:17:56.809Z,18.40
2023-04-30T18:20:24.022Z,18.30
2023-04-30T18:22:51.696Z,18.40
2023-04-30T18:25:19.127Z,17.90
2023-04-30T18:27:46.320Z,18.00
2023-04-30T18:30:13.683Z,17.80
2023-04-30T18:32:41.961Z,18.10
2023-04-30T18:35:10.116Z,17.70
2023-04-30T18:37:37.288Z,17.60
2023-04-30T18:40:05.047Z,17.60
2023-04-30T18:42:33.289Z,17.60
2023-04-30T18:45:01.156Z,17.70
2023-04-30T18:47:28.369Z,17.60
2023-04-30T18:49:56.135Z,17.30
2023-04-30T18:52:23.902Z,17.10
2023-04-30T18:54:51.105Z,17.20
2023-04-30T18:57:18.626Z,17.20
2023-04-30T18:59:45.793Z,17.30
2023-04-30T19:02:13.575Z,17.00
2023-04-30T19:04:40.769Z,17.20
2023-04-30T19:07:08.377Z,17.50
2023-04-30T19:09:36.945Z,17.30
2023-04-30T19:12:04.271Z,16.80
2023-04-30T19:14:31.512Z,17.10
2023-04-30T19:17:00.214Z,17.00
2023-04-30T19:19:27.815Z,16.80
2023-04-30T19:21:55.142Z,16.70
2023-04-30T19:24:23.642Z,16.80
2023-04-30T19:26:51.658Z,17.00
2023-04-30T19:29:19.416Z,16.80
2023-04-30T19:31:46.810Z,16.60
2023-04-30T19:34:14.048Z,16.70
2023-04-30T19:36:44.292Z,16.50
2023-04-30T19:39:11.936Z,17.00
2023-04-30T19:41:39.321Z,16.90
2023-04-30T19:44:07.890Z,16.80
2023-04-30T19:46:35.522Z,16.40
2023-04-30T19:49:03.904Z,16.50
2023-04-30T19:51:31.871Z,16.60
2023-04-30T19:53:59.292Z,16.40
2023-04-30T19:56:26.556Z,16.30
2023-04-30T19:58:53.908Z,16.20
2023-04-30T20:01:21.229Z,16.20
2023-04-30T20:03:48.541Z,16.20
2023-04-30T20:06:15.884Z,16.20
2023-04-30T20:08:43.083Z,15.90
2023-04-30T20:11:10.243Z,16.40
2023-04-30T20:13:37.417Z,16.30
2023-04-30T20:16:04.815Z,16.20
2023-04-30T20:18:32.318Z,16.20
2023-04-30T20:20:59.586Z,16.40
2023-04-30T20:23:26.794Z,16.70
2023-04-30T20:25:55.025Z,16.20
2023-04-30T20:28:22.247Z,16.30
2023-04-30T20:30:49.521Z,16.20
2023-04-30T20:33:17.414Z,16.10
2023-04-30T20:35:46.144Z,16.20
2023-04-30T20:38:13.850Z,16.20
2023-04-30T20:40:41.118Z,16.40
2023-04-30T20:43:12.733Z,16.30
2023-04-30T20:45:42.404Z,16.20
2023-04-30T20:48:09.806Z,16.20
2023-04-30T20:50:38.057Z,16.20
2023-04-30T20:53:05.622Z,16.30
2023-04-30T20:55:32.901Z,16.60
2023-04-30T20:58:00.091Z,16.60
2023-04-30T21:00:27.718Z,16.50
2023-04-30T21:02:54.985Z,16.10
2023-04-30T21:05:22.223Z,16.30
2023-04-30T21:07:49.413Z,16.40
2023-04-30T21:10:16.593Z,16.30
2023-04-30T21:12:43.773Z,16.00
2023-04-30T21:15:11.532Z,16.30
2023-04-30T21:17:38.794Z,16.10
2023-04-30T21:20:06.538Z,16.50
2023-04-30T21:22:34.247Z,16.70
2023-04-30T21:25:01.461Z,17.00
2023-04-30T21:27:28.613Z,17.10
2023-04-30T21:29:56.086Z,17.30
2023-04-30T21:32:23.514Z,16.90
2023-04-30T21:34:50.784Z,17.20
2023-04-30T21:37:18.262Z,17.20
2023-04-30T21:39:45.517Z,17.20
2023-04-30T21:42:12.697Z,16.60
2023-04-30T21:44:39.965Z,17.10
2023-04-30T21:47:10.517Z,17.30
2023-04-30T21:49:37.727Z,17.50
2023-04-30T21:52:08.069Z,17.30
2023-04-30T21:54:35.308Z,17.40
2023-04-30T21:57:02.662Z,17.50
2023-04-30T21:59:29.905Z,17.30
2023-04-30T22:01:57.483Z,17.60
2023-04-30T22:04:25.414Z,17.60
2023-04-30T22:06:52.941Z,17.60
2023-04-30T22:09:20.230Z,17.30
2023-04-30T22:11:47.389Z,17.40
2023-04-30T22:14:14.672Z,17.30
2023-04-30T22:16:41.902Z,17.00
2023-04-30T22:19:09.322Z,17.10
2023-04-30T22:21:36.560Z,17.20
2023-04-30T22:24:03.832Z,17.00
2023-04-30T22:26:31.653Z,17.00
2023-04-30T22:28:58.879Z,17.00
2023-04-30T22:31:26.265Z,16.80
2023-04-30T22:33:53.455Z,16.70
2023-04-30T22:36:20.657Z,16.40
2023-04-30T22:41:15.721Z,17.00
2023-04-30T22:43:42.987Z,17.10
2023-04-30T22:46:10.745Z,17.00
2023-04-30T22:48:38.215Z,17.10
2023-04-30T22:51:06.714Z,17.00
2023-04-30T22:53:34.398Z,17.10
2023-04-30T22:56:01.746Z,17.20
2023-04-30T22:58:28.906Z,17.20
2023-04-30T23:00:56.137Z,17.20
2023-04-30T23:03:23.380Z,17.40
2023-04-30T23:05:51.545Z,17.40
2023-04-30T23:08:19.127Z,17.20
2023-04-30T23:10:46.328Z,17.40
2023-04-30T23:13:14.370Z,17.40
2023-04-30T23:15:43.374Z,17.40
2023-04-30T23:18:10.770Z,17.50
2023-04-30T23:20:39.522Z,17.60
2023-04-30T23:23:06.671Z,17.60
2023-04-30T23:25:33.851Z,17.50
2023-04-30T23:28:01.180Z,17.30
2023-04-30T23:30:28.379Z,17.40
2023-04-30T23:32:55.736Z,17.30
2023-04-30T23:35:23.124Z,17.50
2023-04-30T23:37:50.462Z,17.50
2023-04-30T23:40:19.664Z,17.50
2023-04-30T23:42:46.832Z,17.70
2023-04-30T23:45:14.042Z,17.60
2023-04-30T23:47:41.248Z,17.60
2023-04-30T23:50:09.223Z,17.70
2023-04-30T23:52:36.779Z,17.80
2023-04-30T23:55:04.820Z,17.90
2023-04-30T23:57:32.276Z,17.70
2023-04-30T23:59:59.749Z,17.50
